Terminal Aerodrome Forecast
Issued by NWS Cleveland, OH

Home | Current Version | Previous Version | Graphics & Text | Print | Product List | Glossary On
Versions: 1 2 3 4 5 6 7 8 9 10 11 12 13 14 15 16 17 18
248
FTUS41 KCLE 151720
TAFMFD
TAF
KMFD 151720Z 1518/1618 12004KT P6SM BKN250
     FM160400 12004KT 5SM BR BKN025 OVC100
     FM161300 14004KT 2SM BR BKN008 OVC012=

USA.gov is the U.S. government's official web portal to all federal, state and local government web resources and services.